Time;durP1;ratioP1;P1;durP2;ratioP2;P2;SDS_P1;SDS_P2;PMS_P1;PMS_P2;Temp;Humidity;BMP_temperature;BMP_pressure;BME280_temperature;BME280_humidity;BME280_pressure;Samples;Min_cycle;Max_cycle;Signal;HPM_P1;HPM_P2
2022/12/17 13:06:57;;;;;;;;;;;;;;;6.45;91.78;100473.72;6246662;23;20259;-90
2022/12/17 13:09:24;;;;;;;;;;;;;;;6.49;91.73;100472.78;6246729;23;19915;-91
2022/12/17 13:11:58;;;;;;;;;;;;;;;6.51;91.98;100478.00;6245709;23;19939;-91
2022/12/17 13:14:35;;;;;;;;;;;;;;;6.52;92.21;100474.50;6246548;23;19915;-82
2022/12/17 13:17:20;;;;;;;;;;;;;;;6.54;92.00;100478.84;6246049;23;19911;-90
2022/12/17 13:19:57;;;;;;;;;;;;;;;6.55;92.14;100477.06;6246983;23;20030;-91
2022/12/17 13:22:22;;;;;;;;;;;;;;;6.57;92.23;100475.28;6246945;23;20381;-89
2022/12/17 13:24:48;;;;;;;;;;;;;;;6.59;92.19;100472.63;6220697;23;19919;-90
2022/12/17 13:27:32;;;;;;;;;;;;;;;6.60;92.19;100471.75;6218139;23;19962;-89
2022/12/17 13:30:21;;;;;;;;;;;;;;;6.61;92.15;100466.44;6217158;23;20332;-84
2022/12/17 13:32:46;;;;;;;;;;;;;;;6.63;92.04;100466.44;6219295;23;19911;-86
2022/12/17 13:35:20;;;;;;;;;;;;;;;6.62;92.04;100462.94;6220007;23;19912;-87
2022/12/17 13:37:56;;;;;;;;;;;;;;;6.66;92.15;100461.97;6220100;23;19911;-87
2022/12/17 13:40:27;;;;;;;;;;;;;;;6.67;92.15;100462.84;6246749;23;20282;-84
2022/12/17 13:42:52;;;;;;;;;;;;;;;6.67;92.21;100462.84;6218100;23;19964;-84
2022/12/17 13:45:21;;;;;;;;;;;;;;;6.68;92.17;100454.06;6246363;22;19991;-89
2022/12/17 13:47:54;;;;;;;;;;;;;;;6.68;92.20;100457.53;6220006;23;19916;-85
2022/12/17 13:50:21;;;;;;;;;;;;;;;6.70;92.34;100461.03;6220388;23;19918;-87
2022/12/17 13:52:46;;;;;;;;;;;;;;;6.69;92.22;100461.94;6220018;23;19912;-87
2022/12/17 13:55:23;;;;;;;;;;;;;;;6.70;92.16;100457.53;6219852;23;19918;-86
2022/12/17 13:57:49;;;;;;;;;;;;;;;5.74;91.26;100463.25;6218232;23;20336;-84
2022/12/17 14:00:32;;;;;;;;;;;;;;;4.94;94.47;100469.34;6246661;23;19912;-84
2022/12/17 14:03:07;;;;;;;;;;;;;;;4.61;97.06;100476.59;6219761;23;19967;-82
2022/12/17 14:05:37;;;;;;;;;;;;;;;4.45;99.15;100474.09;6219953;23;20224;-83
2022/12/17 14:08:04;;;;;;;;;;;;;;;4.35;100.00;100475.03;6246419;23;19916;-85
2022/12/17 14:10:30;;;;;;;;;;;;;;;4.17;100.00;100476.88;6219639;23;19923;-87
2022/12/17 14:13:11;;;;;;;;;;;;;;;4.02;100.00;100474.38;6218260;23;19918;-83
2022/12/17 14:15:37;;;;;;;;;;;;;;;3.91;100.00;100473.50;6219569;23;19973;-82
2022/12/17 14:18:02;;;;;;;;;;;;;;;3.88;100.00;100484.00;6246506;23;20319;-84
2022/12/17 14:20:29;;;;;;;;;;;;;;;3.76;100.00;100479.69;6246792;23;19976;-85
2022/12/17 14:23:10;;;;;;;;;;;;;;;3.69;100.00;100484.09;6219434;23;19961;-83
2022/12/17 14:25:36;;;;;;;;;;;;;;;3.68;100.00;100489.34;6246282;23;20346;-85
2022/12/17 14:28:05;;;;;;;;;;;;;;;3.61;100.00;100488.50;6218233;23;20229;-85
2022/12/17 14:30:40;;;;;;;;;;;;;;;3.58;100.00;100499.00;6246531;23;19994;-86
2022/12/17 14:33:24;;;;;;;;;;;;;;;3.43;100.00;100503.41;6246063;23;19912;-85
2022/12/17 14:35:53;;;;;;;;;;;;;;;3.47;100.00;100506.88;6246262;23;19911;-83
2022/12/17 14:38:19;;;;;;;;;;;;;;;3.34;100.00;100498.16;6246275;23;19918;-83
2022/12/17 14:40:44;;;;;;;;;;;;;;;3.35;100.00;100499.94;6246157;23;19912;-83
2022/12/17 14:43:11;;;;;;;;;;;;;;;3.30;100.00;100501.66;6244671;23;19939;-84
2022/12/17 14:46:19;;;;;;;;;;;;;;;3.22;100.00;100503.41;6246140;22;19923;-82
2022/12/17 14:48:59;;;;;;;;;;;;;;;3.15;100.00;100507.81;6246015;23;19986;-84
2022/12/17 14:51:19;;;;;;;;;;;;;;;3.11;100.00;100502.56;6245907;23;19908;-83
2022/12/17 14:53:44;;;;;;;;;;;;;;;3.70;100.00;100504.22;6246232;23;19966;-84
2022/12/17 14:56:20;;;;;;;;;;;;;;;4.35;100.00;100509.13;6245997;23;19907;-84
2022/12/17 14:58:45;;;;;;;;;;;;;;;4.74;100.00;100512.41;6217752;23;19982;-84
2022/12/17 15:01:12;;;;;;;;;;;;;;;4.95;100.00;100519.22;6246015;23;19915;-82
2022/12/17 15:03:39;;;;;;;;;;;;;;;5.08;100.00;100522.63;6246076;23;19919;-81
2022/12/17 15:06:08;;;;;;;;;;;;;;;5.22;100.00;100522.50;6246184;23;19919;-83
2022/12/17 15:08:35;;;;;;;;;;;;;;;5.34;100.00;100511.00;6245962;23;19916;-81
2022/12/17 15:11:01;;;;;;;;;;;;;;;5.41;100.00;100512.69;6246340;23;19915;-81
2022/12/17 15:13:26;;;;;;;;;;;;;;;5.51;100.00;100513.47;6217719;23;20246;-83
2022/12/17 15:15:51;;;;;;;;;;;;;;;5.56;100.00;100517.78;6246076;23;19911;-83
2022/12/17 15:18:16;;;;;;;;;;;;;;;5.61;100.00;100515.97;6246083;23;19918;-83
2022/12/17 15:20:42;;;;;;;;;;;;;;;5.68;100.00;100518.53;6245930;23;19912;-83
2022/12/17 15:23:18;;;;;;;;;;;;;;;5.72;100.00;100512.34;6245913;23;19912;-83
2022/12/17 15:25:44;;;;;;;;;;;;;;;5.77;100.00;100511.41;6246126;23;19918;-83
2022/12/17 15:28:10;;;;;;;;;;;;;;;5.80;100.00;100521.88;6245008;23;19942;-86
2022/12/17 15:30:35;;;;;;;;;;;;;;;5.85;100.00;100516.56;6219160;23;19911;-85
2022/12/17 15:33:02;;;;;;;;;;;;;;;5.90;100.00;100517.38;6246257;23;19958;-85
2022/12/17 15:35:27;;;;;;;;;;;;;;;5.93;100.00;100512.09;6219038;23;19912;-85
2022/12/17 15:37:52;;;;;;;;;;;;;;;5.96;100.00;100511.19;6245895;23;20033;-87
2022/12/17 15:40:18;;;;;;;;;;;;;;;5.98;100.00;100510.34;6246227;23;19911;-88
2022/12/17 15:45:29;;;;;;;;;;;;;;;6.05;99.21;100507.59;6247652;22;19922;-88
2022/12/17 15:47:55;;;;;;;;;;;;;;;6.10;99.16;100503.16;6221378;23;19951;-90
2022/12/17 15:50:20;;;;;;;;;;;;;;;6.13;98.81;100508.41;6220751;23;20247;-88
2022/12/17 15:52:45;;;;;;;;;;;;;;;6.13;98.78;100501.38;6219734;23;19969;-87
2022/12/17 15:55:12;;;;;;;;;;;;;;;6.17;98.39;100504.81;6220217;23;19912;-84
2022/12/17 15:57:37;;;;;;;;;;;;;;;6.19;98.13;100513.59;6219010;23;19916;-89
2022/12/17 16:00:03;;;;;;;;;;;;;;;6.22;97.81;100517.91;6220005;23;19958;-87
2022/12/17 16:02:28;;;;;;;;;;;;;;;6.22;97.62;100520.53;6220347;23;19918;-91
2022/12/17 16:04:54;;;;;;;;;;;;;;;6.24;97.39;100517.00;6247138;23;19990;-88
2022/12/17 16:07:19;;;;;;;;;;;;;;;6.26;97.37;100524.88;6219980;23;19916;-83
2022/12/17 16:09:44;;;;;;;;;;;;;;;6.29;97.09;100519.59;6246874;23;19919;-85
2022/12/17 16:12:10;;;;;;;;;;;;;;;6.29;96.96;100520.44;6245825;23;19935;-87
2022/12/17 16:14:35;;;;;;;;;;;;;;;6.32;96.65;100511.66;6247637;23;19915;-85
2022/12/17 16:17:00;;;;;;;;;;;;;;;6.34;96.43;100521.25;6220925;23;20403;-88
2022/12/17 16:19:25;;;;;;;;;;;;;;;6.35;96.43;100520.38;6247715;23;19912;-86
2022/12/17 16:21:51;;;;;;;;;;;;;;;6.38;96.39;100523.84;6247894;23;19918;-83
2022/12/17 16:24:16;;;;;;;;;;;;;;;6.38;96.23;100524.69;6247483;23;19951;-90
2022/12/17 16:26:41;;;;;;;;;;;;;;;6.40;96.32;100522.94;6220257;23;20282;-90
2022/12/17 16:29:07;;;;;;;;;;;;;;;6.40;96.06;100528.19;6246610;23;19912;-84
2022/12/17 16:31:32;;;;;;;;;;;;;;;6.43;96.03;100532.53;6220733;23;20328;-89
2022/12/17 16:34:00;;;;;;;;;;;;;;;6.43;95.78;100540.44;6220171;23;20216;-89
2022/12/17 16:36:25;;;;;;;;;;;;;;;6.44;95.63;100545.69;6247790;23;20383;-83
2022/12/17 16:38:53;;;;;;;;;;;;;;;6.46;95.67;100543.91;6247877;23;19942;-88
2022/12/17 16:41:19;;;;;;;;;;;;;;;6.45;95.31;100542.16;6247450;23;20290;-86
2022/12/17 16:43:44;;;;;;;;;;;;;;;6.47;95.14;100545.63;6245667;22;19958;-88
2022/12/17 16:46:24;;;;;;;;;;;;;;;6.49;94.99;100549.16;6247172;23;19922;-82
2022/12/17 16:48:49;;;;;;;;;;;;;;;6.50;94.97;100548.22;6247154;23;19986;-82
2022/12/17 16:51:17;;;;;;;;;;;;;;;6.49;94.86;100543.88;6247228;23;20331;-86
2022/12/17 16:53:43;;;;;;;;;;;;;;;6.51;94.86;100531.56;6247189;23;20320;-85
2022/12/17 16:56:13;;;;;;;;;;;;;;;6.52;94.64;100540.31;6247258;23;20042;-83
2022/12/17 16:58:39;;;;;;;;;;;;;;;6.54;94.52;100542.03;6245668;23;19935;-87
2022/12/17 17:01:04;;;;;;;;;;;;;;;6.52;94.51;100535.91;6246799;23;20308;-82
2022/12/17 17:03:29;;;;;;;;;;;;;;;6.54;94.26;100536.78;6246978;23;19915;-83
2022/12/17 17:05:58;;;;;;;;;;;;;;;6.54;94.25;100536.78;6220191;23;19962;-83
2022/12/17 17:08:23;;;;;;;;;;;;;;;6.56;94.00;100539.38;6246997;23;19915;-80
2022/12/17 17:10:49;;;;;;;;;;;;;;;6.57;93.92;100542.88;6246477;23;20077;-82
2022/12/17 17:13:14;;;;;;;;;;;;;;;6.58;93.75;100545.50;6218094;23;19912;-81
2022/12/17 17:15:39;;;;;;;;;;;;;;;6.59;93.83;100539.34;6219647;23;19923;-81
2022/12/17 17:18:04;;;;;;;;;;;;;;;6.60;93.73;100540.22;6246879;23;20348;-81
2022/12/17 17:20:31;;;;;;;;;;;;;;;6.60;93.39;100546.34;6246969;23;20002;-83
2022/12/17 17:22:56;;;;;;;;;;;;;;;6.61;93.38;100547.22;6246429;23;19912;-84
2022/12/17 17:25:21;;;;;;;;;;;;;;;6.62;93.17;100547.22;6247247;23;20361;-85
2022/12/17 17:27:47;;;;;;;;;;;;;;;6.62;93.14;100543.69;6244641;23;19912;-84
2022/12/17 17:30:12;;;;;;;;;;;;;;;6.64;93.06;100544.56;6247231;23;19938;-83
2022/12/17 17:32:37;;;;;;;;;;;;;;;6.63;92.94;100548.94;6244776;23;19912;-82
2022/12/17 17:35:03;;;;;;;;;;;;;;;6.63;92.61;100538.38;6246826;23;19965;-84
2022/12/17 17:37:28;;;;;;;;;;;;;;;6.64;92.58;100550.69;6246528;23;19912;-83
2022/12/17 17:39:53;;;;;;;;;;;;;;;6.63;92.39;100550.69;6246867;23;19995;-89
2022/12/17 17:42:18;;;;;;;;;;;;;;;6.60;91.86;100556.88;6218620;23;20240;-84
2022/12/17 17:44:44;;;;;;;;;;;;;;;5.50;91.60;100566.91;6246159;22;20027;-82
2022/12/17 17:47:09;;;;;;;;;;;;;;;4.86;94.32;100577.06;6246636;23;19916;-85
2022/12/17 17:49:34;;;;;;;;;;;;;;;4.59;96.56;100578.97;6246770;23;19912;-81
2022/12/17 17:51:59;;;;;;;;;;;;;;;4.42;98.76;100579.09;6219914;23;19922;-86
2022/12/17 17:54:25;;;;;;;;;;;;;;;4.34;100.00;100583.47;6220230;23;20316;-83
2022/12/17 17:56:50;;;;;;;;;;;;;;;4.15;100.00;100583.56;6245064;23;19912;-81
2022/12/17 17:59:18;;;;;;;;;;;;;;;4.03;100.00;100582.75;6246737;23;19919;-82
2022/12/17 18:01:44;;;;;;;;;;;;;;;3.90;100.00;100588.03;6246872;23;19916;-81
2022/12/17 18:04:10;;;;;;;;;;;;;;;3.84;100.00;100595.91;6245986;23;19958;-82
2022/12/17 18:06:37;;;;;;;;;;;;;;;3.72;100.00;100583.72;6246865;23;19912;-81
2022/12/17 18:09:03;;;;;;;;;;;;;;;3.70;100.00;100592.44;6246887;23;19966;-82
2022/12/17 18:11:29;;;;;;;;;;;;;;;3.63;100.00;100588.97;6246517;23;19912;-84
2022/12/17 18:13:55;;;;;;;;;;;;;;;3.57;100.00;100600.31;6244989;23;19919;-84
2022/12/17 18:16:20;;;;;;;;;;;;;;;3.51;100.00;100597.72;6246475;23;19915;-83
2022/12/17 18:18:46;;;;;;;;;;;;;;;3.48;100.00;100604.69;6246529;23;20247;-83
2022/12/17 18:21:12;;;;;;;;;;;;;;;3.41;100.00;100599.44;6246360;23;20243;-84
2022/12/17 18:23:38;;;;;;;;;;;;;;;3.34;100.00;100597.72;6219103;23;19919;-83
2022/12/17 18:26:11;;;;;;;;;;;;;;;3.27;100.00;100598.59;6219343;23;19912;-84
2022/12/17 18:28:37;;;;;;;;;;;;;;;3.22;100.00;100602.94;6217465;23;20003;-87
2022/12/17 18:31:09;;;;;;;;;;;;;;;3.17;100.00;100607.31;6219211;23;19912;-81
2022/12/17 18:33:35;;;;;;;;;;;;;;;3.15;100.00;100606.47;6218064;23;19918;-84
2022/12/17 18:36:01;;;;;;;;;;;;;;;3.51;100.00;100597.72;6245035;23;19912;-83
2022/12/17 18:38:26;;;;;;;;;;;;;;;4.29;100.00;100604.53;6245255;23;19918;-82
2022/12/17 18:40:51;;;;;;;;;;;;;;;4.68;100.00;100604.31;6246007;23;19938;-78
2022/12/17 18:43:22;;;;;;;;;;;;;;;4.91;100.00;100605.06;6244444;23;19915;-80
2022/12/17 18:45:48;;;;;;;;;;;;;;;5.03;100.00;100609.34;6245467;22;20225;-80
2022/12/17 18:48:13;;;;;;;;;;;;;;;5.17;100.00;100605.75;6245420;23;19918;-82
2022/12/17 18:50:39;;;;;;;;;;;;;;;5.28;100.00;100615.31;6246121;23;19926;-86
2022/12/17 18:53:04;;;;;;;;;;;;;;;5.36;100.00;100612.63;6245224;23;19918;-85
2022/12/17 18:55:29;;;;;;;;;;;;;;;5.41;100.00;100602.94;6218536;23;19916;-85
2022/12/17 18:57:55;;;;;;;;;;;;;;;5.50;100.00;100612.47;6217953;23;19948;-85
2022/12/17 19:00:20;;;;;;;;;;;;;;;5.56;100.00;100612.41;6219440;23;20227;-84
2022/12/17 19:02:45;;;;;;;;;;;;;;;5.61;100.00;100615.88;6244864;23;20006;-85
2022/12/17 19:05:11;;;;;;;;;;;;;;;5.68;100.00;100618.44;6219038;23;19911;-86
2022/12/17 19:07:39;;;;;;;;;;;;;;;5.73;100.00;100611.41;6219143;23;20323;-88
2022/12/17 19:10:04;;;;;;;;;;;;;;;5.76;100.00;100603.47;6245363;23;19911;-89
2022/12/17 19:12:30;;;;;;;;;;;;;;;5.81;100.00;100601.69;6244774;23;20354;-88
2022/12/17 19:14:55;;;;;;;;;;;;;;;5.84;99.71;100593.75;6244197;23;19966;-85
2022/12/17 19:17:32;;;;;;;;;;;;;;;5.87;99.13;100591.09;6246263;23;19998;-90
2022/12/17 19:19:57;;;;;;;;;;;;;;;5.92;98.92;100594.53;6220551;23;20320;-87
2022/12/17 19:22:23;;;;;;;;;;;;;;;5.96;98.24;100598.91;6248021;23;19973;-90
2022/12/17 19:24:48;;;;;;;;;;;;;;;6.00;98.07;100605.03;6219612;23;19912;-87
2022/12/17 19:27:13;;;;;;;;;;;;;;;6.00;97.80;100608.50;6245892;23;19934;-87
2022/12/17 19:29:39;;;;;;;;;;;;;;;6.03;97.30;100604.09;6220848;23;19954;-85
2022/12/17 19:32:04;;;;;;;;;;;;;;;6.06;96.97;100597.03;6220793;23;20240;-86
2022/12/17 19:34:35;;;;;;;;;;;;;;;6.10;96.76;100604.00;6219538;23;19951;-88
2022/12/17 19:37:00;;;;;;;;;;;;;;;6.14;96.38;100596.94;6220984;23;19995;-84
2022/12/17 19:39:26;;;;;;;;;;;;;;;6.14;96.10;100607.47;6220899;23;19958;-89
2022/12/17 19:41:51;;;;;;;;;;;;;;;6.14;95.70;100599.59;6246461;23;19919;-84
2022/12/17 19:44:18;;;;;;;;;;;;;;;6.15;95.23;100607.47;6246813;22;19937;-82
2022/12/17 19:46:44;;;;;;;;;;;;;;;6.14;94.61;100605.75;6245544;23;19959;-83
2022/12/17 19:49:13;;;;;;;;;;;;;;;6.15;94.22;100601.34;6220407;23;19981;-84
2022/12/17 19:51:39;;;;;;;;;;;;;;;6.19;93.89;100610.94;6220429;23;20375;-87
2022/12/17 19:54:04;;;;;;;;;;;;;;;6.20;93.33;100617.94;6220603;23;19918;-83
2022/12/17 19:56:31;;;;;;;;;;;;;;;6.19;92.96;100613.59;6220081;23;19911;-84
2022/12/17 19:59:17;;;;;;;;;;;;;;;6.21;92.71;100622.31;6219044;23;19943;-81
2022/12/17 20:01:43;;;;;;;;;;;;;;;6.22;92.23;100623.19;6220903;23;19915;-91
2022/12/17 20:04:10;;;;;;;;;;;;;;;6.23;91.85;100627.56;6247461;23;19912;-84
2022/12/17 20:06:36;;;;;;;;;;;;;;;6.24;91.74;100622.28;6244953;23;20386;-79
2022/12/17 20:09:03;;;;;;;;;;;;;;;6.25;91.11;100620.53;6246809;23;19916;-82
2022/12/17 20:11:37;;;;;;;;;;;;;;;6.27;91.18;100617.00;6219934;23;19994;-81
2022/12/17 20:14:12;;;;;;;;;;;;;;;6.28;91.03;100620.47;6219086;23;19954;-85
2022/12/17 20:16:38;;;;;;;;;;;;;;;6.31;90.86;100625.72;6219885;23;20251;-86
2022/12/17 20:19:05;;;;;;;;;;;;;;;6.30;90.55;100626.59;6245525;23;19958;-84
2022/12/17 20:21:30;;;;;;;;;;;;;;;6.33;90.55;100623.94;6245168;23;19923;-87
2022/12/17 20:23:55;;;;;;;;;;;;;;;6.33;90.45;100618.66;6247074;23;19916;-88
2022/12/17 20:26:22;;;;;;;;;;;;;;;6.33;90.20;100624.81;6247106;23;20405;-83
2022/12/17 20:28:47;;;;;;;;;;;;;;;6.33;90.00;100627.44;6245331;23;19912;-82
2022/12/17 20:31:13;;;;;;;;;;;;;;;6.35;89.68;100630.94;6220194;23;19985;-84
2022/12/17 20:33:38;;;;;;;;;;;;;;;6.37;89.48;100628.28;6216175;23;19990;-84
2022/12/17 20:36:08;;;;;;;;;;;;;;;6.39;89.50;100637.00;6246376;23;19918;-83
2022/12/17 20:38:33;;;;;;;;;;;;;;;6.41;89.30;100637.88;6218762;23;19916;-83
2022/12/17 20:40:59;;;;;;;;;;;;;;;6.43;89.26;100641.38;6245896;23;19919;-85
2022/12/17 20:43:24;;;;;;;;;;;;;;;6.44;89.17;100643.09;6217497;23;20217;-85
2022/12/17 20:45:54;;;;;;;;;;;;;;;6.44;89.15;100637.81;6218769;23;20389;-87
2022/12/17 20:48:22;;;;;;;;;;;;;;;6.45;88.88;100633.44;6220292;23;19954;-84
2022/12/17 20:50:48;;;;;;;;;;;;;;;6.46;88.63;100635.16;6219908;23;19942;-85
2022/12/17 20:53:13;;;;;;;;;;;;;;;6.47;88.74;100629.88;6219759;23;19915;-84
2022/12/17 20:55:38;;;;;;;;;;;;;;;6.49;88.45;100632.50;6246536;23;19912;-86
2022/12/17 20:58:04;;;;;;;;;;;;;;;6.49;88.18;100629.88;6218100;23;19919;-84
2022/12/17 21:00:29;;;;;;;;;;;;;;;6.50;88.21;100627.22;6246213;23;19922;-88
2022/12/17 21:02:55;;;;;;;;;;;;;;;6.50;88.11;100624.59;6246614;23;19984;-89
2022/12/17 21:05:21;;;;;;;;;;;;;;;6.51;87.97;100621.06;6239313;23;20327;-86
2022/12/17 21:07:48;;;;;;;;;;;;;;;6.51;87.92;100622.81;6219467;23;19994;-85
2022/12/17 21:10:16;;;;;;;;;;;;;;;6.53;87.97;100626.31;6246550;23;19935;-91
2022/12/17 21:15:25;;;;;;;;;;;;;;;6.55;87.58;100635.06;6245958;23;19977;-84
2022/12/17 21:17:50;;;;;;;;;;;;;;;6.54;87.40;100628.94;6218620;23;19912;-89
2022/12/17 21:20:16;;;;;;;;;;;;;;;6.57;87.46;100635.91;6218304;23;20240;-83
2022/12/17 21:22:41;;;;;;;;;;;;;;;6.55;87.23;100642.97;6246732;23;19958;-83
2022/12/17 21:25:09;;;;;;;;;;;;;;;6.56;87.14;100639.44;6218999;23;19918;-91
2022/12/17 21:27:34;;;;;;;;;;;;;;;6.57;86.88;100646.44;6243966;23;19912;-88
2022/12/17 21:30:00;;;;;;;;;;;;;;;6.55;86.70;100657.00;6246275;23;19915;-85
2022/12/17 21:32:25;;;;;;;;;;;;;;;6.57;86.74;100658.75;6219496;23;20236;-81
2022/12/17 21:34:51;;;;;;;;;;;;;;;6.57;86.46;100651.72;6218906;23;19912;-81
2022/12/17 21:37:16;;;;;;;;;;;;;;;6.58;86.31;100650.81;6246297;23;20279;-84
2022/12/17 21:39:51;;;;;;;;;;;;;;;6.57;86.21;100649.06;6245508;23;20378;-88
2022/12/17 21:45:00;;;;;;;;;;;;;;;6.63;86.17;100656.03;6244180;22;19926;-86
2022/12/17 21:47:25;;;;;;;;;;;;;;;6.62;85.91;100649.91;6246188;23;19911;-86
2022/12/17 21:49:51;;;;;;;;;;;;;;;6.64;86.03;100657.78;6246121;23;19911;-86
2022/12/17 21:52:16;;;;;;;;;;;;;;;6.64;85.88;100652.53;6245496;23;19912;-81
2022/12/17 21:54:41;;;;;;;;;;;;;;;6.64;85.75;100658.66;6245859;23;19939;-84
2022/12/17 21:57:06;;;;;;;;;;;;;;;6.65;85.67;100641.97;6243528;23;19922;-81
2022/12/17 21:59:32;;;;;;;;;;;;;;;5.81;84.74;100643.75;6218822;23;19915;-83
2022/12/17 22:01:57;;;;;;;;;;;;;;;4.95;88.35;100650.56;6218103;23;19911;-83
2022/12/17 22:04:25;;;;;;;;;;;;;;;4.63;90.90;100650.75;6218987;23;19911;-86
2022/12/17 22:06:51;;;;;;;;;;;;;;;4.55;94.36;100656.03;6245452;23;19916;-87
2022/12/17 22:09:16;;;;;;;;;;;;;;;4.35;96.33;100656.94;6219235;23;19918;-87
2022/12/17 22:11:41;;;;;;;;;;;;;;;4.14;97.59;100663.13;6239071;23;19915;-87
2022/12/17 22:14:10;;;;;;;;;;;;;;;4.06;98.88;100667.53;6244519;23;19923;-90
2022/12/17 22:17:11;;;;;;;;;;;;;;;3.93;99.82;100671.06;6246109;23;19942;-93
2022/12/17 22:19:36;;;;;;;;;;;;;;;3.90;100.00;100658.81;6246669;23;19934;-85
2022/12/17 22:22:07;;;;;;;;;;;;;;;3.68;100.00;100662.34;6217792;23;20340;-90
2022/12/17 22:24:33;;;;;;;;;;;;;;;3.64;100.00;100669.34;6246252;23;19911;-85
2022/12/17 22:26:59;;;;;;;;;;;;;;;3.61;100.00;100671.97;6244095;23;20194;-84
2022/12/17 22:34:55;;;;;;;;;;;;;;;3.33;100.00;100669.31;6245253;23;19960;-88
2022/12/17 22:37:42;;;;;;;;;;;;;;;3.37;100.00;100673.69;6245708;23;19947;-90
2022/12/17 22:40:06;;;;;;;;;;;;;;;3.30;100.00;100674.56;6245039;23;19911;-88
2022/12/17 22:45:17;;;;;;;;;;;;;;;3.15;100.00;100682.41;6232212;23;21563;-86
2022/12/17 22:47:48;;;;;;;;;;;;;;;3.09;100.00;100688.50;6242248;23;19915;-90
2022/12/17 22:50:31;;;;;;;;;;;;;;;3.01;100.00;100685.84;6243219;23;19986;-90
2022/12/17 22:52:57;;;;;;;;;;;;;;;3.73;100.00;100673.69;6215740;23;19919;-83
2022/12/17 22:55:31;;;;;;;;;;;;;;;4.39;100.00;100681.44;6242507;23;19912;-87
2022/12/17 22:57:56;;;;;;;;;;;;;;;4.70;100.00;100676.06;6215224;23;20317;-82
2022/12/17 23:00:23;;;;;;;;;;;;;;;4.88;100.00;100681.25;6242048;23;19919;-85
2022/12/17 23:02:51;;;;;;;;;;;;;;;5.03;100.00;100674.16;6241832;23;19990;-87
2022/12/17 23:05:16;;;;;;;;;;;;;;;5.12;100.00;100673.22;6215742;23;19999;-90
2022/12/17 23:07:41;;;;;;;;;;;;;;;5.22;100.00;100678.41;6242692;23;19947;-82
2022/12/17 23:10:06;;;;;;;;;;;;;;;5.31;100.00;100681.84;6241755;23;19907;-88
2022/12/17 23:12:50;;;;;;;;;;;;;;;5.38;100.00;100684.44;6244217;22;19979;-86
2022/12/17 23:15:20;;;;;;;;;;;;;;;5.45;99.47;100682.63;6248971;22;20236;-85
2022/12/17 23:17:46;;;;;;;;;;;;;;;5.51;98.82;100687.84;6276639;22;19911;-85
2022/12/17 23:20:11;;;;;;;;;;;;;;;5.57;98.08;100692.19;6276478;22;19907;-87
2022/12/17 23:22:38;;;;;;;;;;;;;;;5.61;97.32;100688.63;6249435;22;19961;-82
2022/12/17 23:25:03;;;;;;;;;;;;;;;5.66;96.84;100686.81;6248317;22;19918;-83
2022/12/17 23:27:38;;;;;;;;;;;;;;;5.73;96.25;100691.16;6247844;22;20386;-93
2022/12/17 23:30:04;;;;;;;;;;;;;;;5.75;95.64;100680.63;6249002;22;19919;-89
2022/12/17 23:32:29;;;;;;;;;;;;;;;5.79;95.03;100675.34;6276141;22;19915;-84
2022/12/17 23:34:54;;;;;;;;;;;;;;;5.81;94.42;100667.44;6275926;22;19969;-89
2022/12/17 23:37:20;;;;;;;;;;;;;;;5.84;94.02;100664.78;6276034;22;19942;-83
2022/12/17 23:39:45;;;;;;;;;;;;;;;5.89;93.60;100667.34;6248605;22;19912;-87
2022/12/17 23:42:10;;;;;;;;;;;;;;;5.91;93.18;100669.06;6274684;22;19912;-83
2022/12/17 23:44:35;;;;;;;;;;;;;;;5.94;92.83;100663.78;6263705;22;20308;-85
2022/12/17 23:47:01;;;;;;;;;;;;;;;5.96;92.48;100659.41;6245656;23;19916;-88
2022/12/17 23:49:26;;;;;;;;;;;;;;;5.98;92.25;100659.41;6245706;23;19919;-87
2022/12/17 23:51:51;;;;;;;;;;;;;;;6.02;91.86;100663.75;6218667;23;19922;-84
2022/12/17 23:54:16;;;;;;;;;;;;;;;6.05;91.46;100660.19;6244447;23;19916;-88
2022/12/17 23:56:43;;;;;;;;;;;;;;;6.07;91.12;100671.59;6244548;23;19912;-90
2022/12/17 23:59:09;;;;;;;;;;;;;;;6.09;90.92;100675.06;6217793;23;19983;-87
